Wind Star — C6CA9 — position and weather

sailwx.info

Track history (hours):
 
Tides and Currents Weather Stations Pressure Air Temp Water Temp Dewpoint Dewpoint Depression Visibility Wind Speed Wind Dir Waves Ship Positions

Wind Star

Operator: Holland America Line

Last reported at 2017-Jun-23 20:23 UTC. Time now 2017-Jun-23 20:43 UTC.
Position N 37°13' E 023°34'.

Length 134 m; draft 4.1 m.

Type: Passenger vessel. MMSI: 309163000.

Date/timePositionNaut miles runAvg speedWind from/ knotsBaromVisibWave heightAir tempDewpointWater temp
2017-Jun-23 20:23N 37°13' E 023°34'3 7.4
2017-Jun-23 19:55N 37°10' E 023°32'4 7.6
2017-Jun-23 19:27N 37°08' E 023°29'32 2.3
2017-Jun-23 05:30N 36°36' E 023°30'  
2017-Jun-19 19:12N 37°42' E 025°48'1 7.1
2017-Jun-19 19:00N 37°42' E 025°47'4 7.1
2017-Jun-19 18:30N 37°40' E 025°43'3 6.6
2017-Jun-19 18:00N 37°39' E 025°39'3 7.0
2017-Jun-19 17:30N 37°37' E 025°35'4 7.1
2017-Jun-19 17:00N 37°36' E 025°31'4 7.9
2017-Jun-19 16:30N 37°34' E 025°26'4 8.2
2017-Jun-19 16:00N 37°32' E 025°22'4 7.8
2017-Jun-19 15:30N 37°30' E 025°17'3 6.3
2017-Jun-19 15:00N 37°27' E 025°19'0 0.1
2017-Jun-19 14:29N 37°27' E 025°19'0 0.0
2017-Jun-19 13:28N 37°27' E 025°19'0 0.1
2017-Jun-19 12:49N 37°27' E 025°19'0 0.1
2017-Jun-19 12:28N 37°27' E 025°19'0 0.0
2017-Jun-19 11:58N 37°27' E 025°19'0 0.0
2017-Jun-19 11:28N 37°27' E 025°19'0 0.0
2017-Jun-19 10:58N 37°27' E 025°19'0 0.0
2017-Jun-19 10:25N 37°27' E 025°19'0 0.1
2017-Jun-19 09:58N 37°27' E 025°19'0 0.1
2017-Jun-19 09:28N 37°27' E 025°19'0 0.0
2017-Jun-19 08:52N 37°27' E 025°19'0 0.0
2017-Jun-19 08:28N 37°27' E 025°19'0 0.0
2017-Jun-19 07:58N 37°27' E 025°19'0 0.1
2017-Jun-19 07:28N 37°27' E 025°19'0 0.1
2017-Jun-19 06:58N 37°27' E 025°19'0 0.1
2017-Jun-19 06:28N 37°27' E 025°19'0 0.0
2017-Jun-19 05:58N 37°27' E 025°19'0 0.0
2017-Jun-19 05:28N 37°27' E 025°19'0 0.0
2017-Jun-19 04:58N 37°27' E 025°19'0 0.0
2017-Jun-19 04:28N 37°27' E 025°19'0 1.0
2017-Jun-19 04:00N 37°27' E 025°19'5 9.6
2017-Jun-19 03:30N 37°27' E 025°13'5 9.1
2017-Jun-19 03:00N 37°26' E 025°07'5 9.2
2017-Jun-19 02:30N 37°23' E 025°02'4 9.0
2017-Jun-19 02:00N 37°21' E 024°58'5 9.5
2017-Jun-19 01:30N 37°19' E 024°52'5 9.2
2017-Jun-19 01:00N 37°18' E 024°46'86 9.9
2017-Jun-18 16:22N 37°17' E 022°59'15 0.8
2017-Jun-17 22:21N 37°09' E 023°14'3 7.6
2017-Jun-17 21:59N 37°09' E 023°17'6 8.3
2017-Jun-17 21:17N 37°10' E 023°25'3 7.3
2017-Jun-17 20:52N 37°10' E 023°29'23 7.2
2017-Jun-17 17:40N 37°30' E 023°43'1 8.1
2017-Jun-17 17:30N 37°31' E 023°43'5 9.3
2017-Jun-17 17:00N 37°36' E 023°42'5 9.2
2017-Jun-17 16:30N 37°40' E 023°42'4 8.9
2017-Jun-17 16:00N 37°44' E 023°40'5 9.0
2017-Jun-17 15:30N 37°49' E 023°38'4 8.3
2017-Jun-17 15:01N 37°53' E 023°36'4 3.9
2017-Jun-17 13:58N 37°56' E 023°38'0 0.0
2017-Jun-17 13:30N 37°56' E 023°38'0 0.0
2017-Jun-17 13:00N 37°56' E 023°38'0 0.0
2017-Jun-17 12:30N 37°56' E 023°38'0 0.0
2017-Jun-17 12:00N 37°56' E 023°38'0 0.0
2017-Jun-17 11:30N 37°56' E 023°38'0 0.0
2017-Jun-17 11:00N 37°56' E 023°38'0 0.0
2017-Jun-17 10:30N 37°56' E 023°38'0 0.0
2017-Jun-17 10:00N 37°56' E 023°38'0 0.0
2017-Jun-17 09:30N 37°56' E 023°38'0 0.0
2017-Jun-17 09:00N 37°56' E 023°38'0 0.0
2017-Jun-17 08:30N 37°56' E 023°38'0 0.0
2017-Jun-17 08:00N 37°56' E 023°38'0 0.0
2017-Jun-17 07:30N 37°56' E 023°38'0 0.0
2017-Jun-17 06:57N 37°56' E 023°38'0 0.0
2017-Jun-17 06:30N 37°56' E 023°38'0 0.0
2017-Jun-17 06:00N 37°56' E 023°38'0 0.0
2017-Jun-17 05:30N 37°56' E 023°38'0 0.0
2017-Jun-17 05:00N 37°56' E 023°38'0 0.0
2017-Jun-17 04:30N 37°56' E 023°38'0 0.0
2017-Jun-17 04:00N 37°56' E 023°38'1 3.0
2017-Jun-17 03:31N 37°56' E 023°36'2 3.2
2017-Jun-17 03:00N 37°54' E 023°37'3 6.2
2017-Jun-17 02:30N 37°51' E 023°39'3 6.8
2017-Jun-17 02:00N 37°48' E 023°41'4 7.2
2017-Jun-17 01:30N 37°45' E 023°43'3 6.8
2017-Jun-17 01:00N 37°42' E 023°45'3 6.1
2017-Jun-17 00:30N 37°39' E 023°46'4 7.1
2017-Jun-17 00:00N 37°36' E 023°46'5 7.8
2017-Jun-16 23:20N 37°31' E 023°47'  
Track history (hours):
 
Tides and Currents Weather Stations Pressure Air Temp Water Temp Dewpoint Dewpoint Depression Visibility Wind Speed Wind Dir Waves Ship Positions

Wind Star

Operator: Holland America Line

Last reported at 2017-Jun-23 20:23 UTC. Time now 2017-Jun-23 20:43 UTC.
Position N 37°13' E 023°34'.

Length 134 m; draft 4.1 m.

Type: Passenger vessel. MMSI: 309163000.

Date/timePositionNaut miles runAvg speedWind from/ knotsBaromVisibWave heightAir tempDewpointWater temp
2017-Jun-23 20:23N 37°13' E 023°34'3 7.4
2017-Jun-23 19:55N 37°10' E 023°32'4 7.6
2017-Jun-23 19:27N 37°08' E 023°29'32 2.3
2017-Jun-23 05:30N 36°36' E 023°30'  
2017-Jun-19 19:12N 37°42' E 025°48'1 7.1
2017-Jun-19 19:00N 37°42' E 025°47'4 7.1
2017-Jun-19 18:30N 37°40' E 025°43'3 6.6
2017-Jun-19 18:00N 37°39' E 025°39'3 7.0
2017-Jun-19 17:30N 37°37' E 025°35'4 7.1
2017-Jun-19 17:00N 37°36' E 025°31'4 7.9
2017-Jun-19 16:30N 37°34' E 025°26'4 8.2
2017-Jun-19 16:00N 37°32' E 025°22'4 7.8
2017-Jun-19 15:30N 37°30' E 025°17'3 6.3
2017-Jun-19 15:00N 37°27' E 025°19'0 0.1
2017-Jun-19 14:29N 37°27' E 025°19'0 0.0
2017-Jun-19 13:28N 37°27' E 025°19'0 0.1
2017-Jun-19 12:49N 37°27' E 025°19'0 0.1
2017-Jun-19 12:28N 37°27' E 025°19'0 0.0
2017-Jun-19 11:58N 37°27' E 025°19'0 0.0
2017-Jun-19 11:28N 37°27' E 025°19'0 0.0
2017-Jun-19 10:58N 37°27' E 025°19'0 0.0
2017-Jun-19 10:25N 37°27' E 025°19'0 0.1
2017-Jun-19 09:58N 37°27' E 025°19'0 0.1
2017-Jun-19 09:28N 37°27' E 025°19'0 0.0
2017-Jun-19 08:52N 37°27' E 025°19'0 0.0
2017-Jun-19 08:28N 37°27' E 025°19'0 0.0
2017-Jun-19 07:58N 37°27' E 025°19'0 0.1
2017-Jun-19 07:28N 37°27' E 025°19'0 0.1
2017-Jun-19 06:58N 37°27' E 025°19'0 0.1
2017-Jun-19 06:28N 37°27' E 025°19'0 0.0
2017-Jun-19 05:58N 37°27' E 025°19'0 0.0
2017-Jun-19 05:28N 37°27' E 025°19'0 0.0
2017-Jun-19 04:58N 37°27' E 025°19'0 0.0
2017-Jun-19 04:28N 37°27' E 025°19'0 1.0
2017-Jun-19 04:00N 37°27' E 025°19'5 9.6
2017-Jun-19 03:30N 37°27' E 025°13'5 9.1
2017-Jun-19 03:00N 37°26' E 025°07'5 9.2
2017-Jun-19 02:30N 37°23' E 025°02'4 9.0
2017-Jun-19 02:00N 37°21' E 024°58'5 9.5
2017-Jun-19 01:30N 37°19' E 024°52'5 9.2
2017-Jun-19 01:00N 37°18' E 024°46'86 9.9
2017-Jun-18 16:22N 37°17' E 022°59'15 0.8
2017-Jun-17 22:21N 37°09' E 023°14'3 7.6
2017-Jun-17 21:59N 37°09' E 023°17'6 8.3
2017-Jun-17 21:17N 37°10' E 023°25'3 7.3
2017-Jun-17 20:52N 37°10' E 023°29'23 7.2
2017-Jun-17 17:40N 37°30' E 023°43'1 8.1
2017-Jun-17 17:30N 37°31' E 023°43'5 9.3
2017-Jun-17 17:00N 37°36' E 023°42'5 9.2
2017-Jun-17 16:30N 37°40' E 023°42'4 8.9
2017-Jun-17 16:00N 37°44' E 023°40'5 9.0
2017-Jun-17 15:30N 37°49' E 023°38'4 8.3
2017-Jun-17 15:01N 37°53' E 023°36'4 3.9
2017-Jun-17 13:58N 37°56' E 023°38'0 0.0
2017-Jun-17 13:30N 37°56' E 023°38'0 0.0
2017-Jun-17 13:00N 37°56' E 023°38'0 0.0
2017-Jun-17 12:30N 37°56' E 023°38'0 0.0
2017-Jun-17 12:00N 37°56' E 023°38'0 0.0
2017-Jun-17 11:30N 37°56' E 023°38'0 0.0
2017-Jun-17 11:00N 37°56' E 023°38'0 0.0
2017-Jun-17 10:30N 37°56' E 023°38'0 0.0
2017-Jun-17 10:00N 37°56' E 023°38'0 0.0
2017-Jun-17 09:30N 37°56' E 023°38'0 0.0
2017-Jun-17 09:00N 37°56' E 023°38'0 0.0
2017-Jun-17 08:30N 37°56' E 023°38'0 0.0
2017-Jun-17 08:00N 37°56' E 023°38'0 0.0
2017-Jun-17 07:30N 37°56' E 023°38'0 0.0
2017-Jun-17 06:57N 37°56' E 023°38'0 0.0
2017-Jun-17 06:30N 37°56' E 023°38'0 0.0
2017-Jun-17 06:00N 37°56' E 023°38'0 0.0
2017-Jun-17 05:30N 37°56' E 023°38'0 0.0
2017-Jun-17 05:00N 37°56' E 023°38'0 0.0
2017-Jun-17 04:30N 37°56' E 023°38'0 0.0
2017-Jun-17 04:00N 37°56' E 023°38'1 3.0
2017-Jun-17 03:31N 37°56' E 023°36'2 3.2
2017-Jun-17 03:00N 37°54' E 023°37'3 6.2
2017-Jun-17 02:30N 37°51' E 023°39'3 6.8
2017-Jun-17 02:00N 37°48' E 023°41'4 7.2
2017-Jun-17 01:30N 37°45' E 023°43'3 6.8
2017-Jun-17 01:00N 37°42' E 023°45'3 6.1
2017-Jun-17 00:30N 37°39' E 023°46'4 7.1
2017-Jun-17 00:00N 37°36' E 023°46'5 7.8
2017-Jun-16 23:20N 37°31' E 023°47'  

Dump ship's entire track history